createdAt,value
2018-05-18T00:02:34.027Z,8.20
2018-05-18T00:05:08.134Z,8.20
2018-05-18T00:07:42.844Z,8.10
2018-05-18T00:10:18.386Z,8.20
2018-05-18T00:12:52.908Z,8.20
2018-05-18T00:15:28.263Z,8.20
2018-05-18T00:18:02.352Z,8.30
2018-05-18T00:20:37.452Z,8.20
2018-05-18T00:23:14.596Z,8.20
2018-05-18T00:25:50.126Z,8.10
2018-05-18T00:28:24.328Z,8.10
2018-05-18T00:31:00.168Z,8.20
2018-05-18T00:33:35.831Z,8.20
2018-05-18T00:36:11.485Z,8.10
2018-05-18T00:38:46.735Z,8.10
2018-05-18T00:41:21.541Z,8.00
2018-05-18T00:43:55.970Z,8.10
2018-05-18T00:46:31.208Z,8.10
2018-05-18T00:49:05.348Z,8.10
2018-05-18T00:51:40.970Z,8.00
2018-05-18T00:54:18.681Z,8.00
2018-05-18T00:56:52.366Z,8.00
2018-05-18T00:59:28.209Z,7.90
2018-05-18T01:02:02.919Z,7.80
2018-05-18T01:04:37.178Z,7.80
2018-05-18T01:07:11.664Z,7.70
2018-05-18T01:09:46.992Z,7.70
2018-05-18T01:12:21.863Z,7.70
2018-05-18T01:14:56.903Z,7.60
2018-05-18T01:17:31.010Z,7.60
2018-05-18T01:20:05.725Z,7.50
2018-05-18T01:22:42.181Z,7.60
2018-05-18T01:25:16.840Z,7.50
2018-05-18T01:27:51.346Z,7.50
2018-05-18T01:30:26.251Z,7.40
2018-05-18T01:33:01.821Z,7.30
2018-05-18T01:35:36.009Z,7.30
2018-05-18T01:38:10.879Z,7.30
2018-05-18T01:40:45.263Z,7.30
2018-05-18T01:43:21.636Z,7.30
2018-05-18T01:45:55.750Z,7.20
2018-05-18T01:48:32.208Z,7.30
2018-05-18T01:51:06.631Z,7.30
2018-05-18T01:53:41.867Z,7.40
2018-05-18T01:56:16.186Z,7.40
2018-05-18T01:58:51.318Z,7.40
2018-05-18T02:01:25.234Z,7.40
2018-05-18T02:04:00.362Z,7.40
2018-05-18T02:06:34.586Z,7.30
2018-05-18T02:09:11.154Z,7.30
2018-05-18T02:11:45.779Z,7.10
2018-05-18T02:14:20.602Z,7.00
2018-05-18T02:16:56.175Z,7.10
2018-05-18T02:19:30.587Z,7.00
2018-05-18T02:22:04.417Z,7.10
2018-05-18T02:24:39.622Z,7.00
2018-05-18T02:27:14.129Z,7.00
2018-05-18T02:29:49.907Z,6.80
2018-05-18T02:32:24.008Z,6.80
2018-05-18T02:34:59.439Z,6.70
2018-05-18T02:37:33.731Z,6.70
2018-05-18T02:40:08.952Z,6.70
2018-05-18T02:42:43.200Z,6.70
2018-05-18T02:45:19.483Z,6.60
2018-05-18T02:47:53.353Z,6.60
2018-05-18T02:50:27.491Z,6.60
2018-05-18T02:53:02.531Z,6.60
2018-05-18T02:55:36.548Z,6.50
2018-05-18T02:58:11.664Z,6.60
2018-05-18T03:00:45.997Z,6.60
2018-05-18T03:03:22.835Z,6.50
2018-05-18T03:05:57.806Z,6.50
2018-05-18T03:08:32.936Z,6.60
2018-05-18T03:11:06.640Z,6.60
2018-05-18T03:13:41.181Z,6.50
2018-05-18T03:16:16.695Z,6.60
2018-05-18T03:18:52.048Z,6.90
2018-05-18T03:21:28.614Z,7.00
2018-05-18T03:24:03.349Z,7.00
2018-05-18T03:26:37.235Z,7.00
2018-05-18T03:29:11.878Z,7.00
2018-05-18T03:31:45.671Z,6.90
2018-05-18T03:34:20.025Z,6.90
2018-05-18T03:36:54.398Z,7.10
2018-05-18T03:39:29.952Z,7.10
2018-05-18T03:42:03.860Z,7.10
2018-05-18T03:44:38.605Z,7.20
2018-05-18T03:47:13.311Z,7.20
2018-05-18T03:49:48.755Z,7.30
2018-05-18T03:52:23.579Z,7.50
2018-05-18T03:54:58.526Z,7.40
2018-05-18T03:57:33.354Z,7.50
2018-05-18T04:00:07.967Z,7.40
2018-05-18T04:02:56.207Z,7.60
2018-05-18T04:05:42.311Z,7.70
2018-05-18T04:08:29.210Z,7.70
2018-05-18T04:11:03.933Z,7.70
2018-05-18T04:13:40.328Z,7.80
2018-05-18T04:16:15.331Z,7.80
2018-05-18T04:18:50.896Z,7.90
2018-05-18T04:21:24.909Z,7.90
2018-05-18T04:24:00.329Z,7.90
2018-05-18T04:26:35.065Z,8.00
2018-05-18T04:29:11.830Z,8.00
2018-05-18T04:31:49.620Z,8.00
2018-05-18T04:34:24.432Z,8.30
2018-05-18T04:36:58.721Z,8.30
2018-05-18T04:39:33.070Z,8.30
2018-05-18T04:42:08.333Z,8.30
2018-05-18T04:44:43.061Z,8.50
2018-05-18T04:47:17.799Z,8.50
2018-05-18T04:49:52.719Z,8.50
2018-05-18T04:52:27.558Z,8.30
2018-05-18T04:55:03.498Z,8.20
2018-05-18T04:57:38.335Z,8.10
2018-05-18T05:00:12.839Z,8.10
2018-05-18T05:02:46.758Z,8.20
2018-05-18T05:05:21.728Z,8.60
2018-05-18T05:07:56.138Z,8.50
2018-05-18T05:10:30.323Z,8.70
2018-05-18T05:13:05.044Z,8.60
2018-05-18T05:15:40.003Z,8.70
2018-05-18T05:18:14.399Z,8.70
2018-05-18T05:20:49.914Z,8.70
2018-05-18T05:23:23.941Z,8.90
2018-05-18T05:25:59.148Z,9.20
2018-05-18T05:28:32.811Z,9.20
2018-05-18T05:31:13.338Z,9.30
2018-05-18T05:33:48.896Z,9.50
2018-05-18T05:36:22.704Z,9.60
2018-05-18T05:38:58.238Z,9.70
2018-05-18T05:41:32.967Z,9.90
2018-05-18T05:44:08.124Z,9.90
2018-05-18T05:46:43.246Z,10.00
2018-05-18T05:49:18.794Z,10.10
2018-05-18T05:51:53.211Z,10.10
2018-05-18T05:54:28.264Z,10.20
2018-05-18T05:57:03.076Z,10.20
2018-05-18T05:59:38.161Z,9.90
2018-05-18T06:02:12.523Z,10.30
2018-05-18T06:04:49.292Z,10.50
2018-05-18T06:07:23.408Z,10.50
2018-05-18T06:09:58.552Z,10.50
2018-05-18T06:12:33.174Z,10.60
2018-05-18T06:15:07.917Z,10.50
2018-05-18T06:17:42.711Z,10.70
2018-05-18T06:20:19.094Z,11.00
2018-05-18T06:22:53.104Z,10.90
2018-05-18T06:25:29.956Z,11.00
2018-05-18T06:28:03.695Z,11.00
2018-05-18T06:30:39.751Z,11.20
2018-05-18T06:33:13.406Z,11.10
2018-05-18T06:35:49.507Z,11.20
2018-05-18T06:38:23.210Z,11.20
2018-05-18T06:40:58.123Z,11.30
2018-05-18T06:43:32.438Z,10.90
2018-05-18T06:46:06.247Z,10.90
2018-05-18T06:48:41.195Z,10.90
2018-05-18T06:51:16.531Z,11.10
2018-05-18T06:53:51.039Z,11.10
2018-05-18T06:56:25.250Z,11.10
2018-05-18T06:59:00.189Z,11.30
2018-05-18T07:01:35.113Z,11.40
2018-05-18T07:04:11.650Z,11.50
2018-05-18T07:06:46.400Z,11.50
2018-05-18T07:09:21.251Z,11.50
2018-05-18T07:11:56.130Z,11.50
2018-05-18T07:14:31.419Z,11.60
2018-05-18T07:17:05.327Z,11.60
2018-05-18T07:19:39.099Z,11.60
2018-05-18T07:22:12.924Z,11.70
2018-05-18T07:24:47.949Z,11.80
2018-05-18T07:27:22.401Z,12.10
2018-05-18T07:29:57.855Z,12.00
2018-05-18T07:32:33.875Z,12.00
2018-05-18T07:35:08.302Z,12.00
2018-05-18T07:37:42.009Z,12.00
2018-05-18T07:40:17.732Z,12.30
2018-05-18T07:42:52.602Z,12.40
2018-05-18T07:58:17.272Z,13.50
2018-05-18T08:00:52.090Z,13.80
2018-05-18T08:03:26.495Z,14.20
2018-05-18T08:06:00.606Z,14.10
2018-05-18T08:08:35.223Z,14.30
2018-05-18T08:11:10.260Z,14.40
2018-05-18T08:13:44.335Z,14.40
2018-05-18T08:16:17.975Z,14.50
2018-05-18T08:18:52.504Z,14.70
2018-05-18T08:21:26.412Z,14.60
2018-05-18T08:24:01.027Z,14.90
2018-05-18T08:26:35.646Z,15.50
2018-05-18T08:29:22.245Z,15.90
2018-05-18T08:31:56.750Z,15.90
2018-05-18T08:34:31.297Z,15.60
2018-05-18T08:37:05.630Z,15.90
2018-05-18T08:39:39.521Z,15.90
2018-05-18T08:42:14.194Z,15.80
2018-05-18T08:44:48.368Z,15.80
2018-05-18T08:47:22.179Z,15.80
2018-05-18T08:49:56.795Z,16.40
2018-05-18T08:52:31.410Z,16.60
2018-05-18T08:55:06.050Z,17.60
2018-05-18T08:57:40.412Z,17.60
2018-05-18T09:00:15.059Z,17.90
2018-05-18T09:02:48.803Z,17.80
2018-05-18T09:05:23.922Z,17.60
2018-05-18T09:07:59.058Z,17.60
2018-05-18T09:10:32.752Z,17.40
2018-05-18T09:13:07.601Z,17.80
2018-05-18T09:15:41.383Z,17.80
2018-05-18T09:18:16.238Z,17.70
2018-05-18T09:20:51.051Z,18.00
2018-05-18T09:23:25.191Z,17.90
2018-05-18T09:26:00.511Z,18.60
2018-05-18T09:28:34.822Z,19.30
2018-05-18T09:31:09.634Z,19.80
2018-05-18T09:33:43.567Z,19.70
2018-05-18T09:36:17.350Z,20.30
2018-05-18T09:38:52.001Z,21.00
2018-05-18T09:41:27.118Z,21.00
2018-05-18T09:44:01.623Z,20.70
2018-05-18T09:46:36.894Z,19.60
2018-05-18T09:49:10.680Z,19.60
2018-05-18T09:51:45.427Z,18.30
2018-05-18T09:54:20.595Z,18.30
2018-05-18T09:56:54.967Z,18.50
2018-05-18T09:59:29.394Z,18.50
2018-05-18T10:02:03.902Z,19.60
2018-05-18T10:04:38.751Z,20.20
2018-05-18T10:07:13.246Z,20.70
2018-05-18T10:09:48.388Z,21.10
2018-05-18T10:12:23.145Z,21.60
2018-05-18T10:14:58.770Z,20.60
2018-05-18T10:17:33.172Z,20.50
2018-05-18T10:20:10.359Z,20.60
2018-05-18T10:22:44.988Z,20.60
2018-05-18T10:25:25.248Z,20.60
2018-05-18T10:27:59.339Z,20.60
2018-05-18T10:30:33.787Z,20.50
2018-05-18T10:33:08.230Z,20.50
2018-05-18T10:35:42.901Z,20.00
2018-05-18T10:38:17.857Z,19.70
2018-05-18T10:40:52.288Z,19.30
2018-05-18T10:43:26.095Z,19.30
2018-05-18T10:46:01.413Z,21.10
2018-05-18T10:48:35.535Z,21.10
2018-05-18T10:51:10.973Z,22.10
2018-05-18T10:53:44.676Z,22.20
2018-05-18T10:56:19.940Z,22.40
2018-05-18T10:58:53.734Z,22.40
2018-05-18T11:01:28.623Z,22.40
2018-05-18T11:04:03.198Z,23.10
2018-05-18T11:06:37.866Z,23.00
2018-05-18T11:09:12.398Z,21.80
2018-05-18T11:11:47.248Z,21.70
2018-05-18T11:14:21.778Z,20.70
2018-05-18T11:16:56.785Z,20.00
2018-05-18T11:19:30.590Z,20.00
2018-05-18T11:22:05.105Z,20.50
2018-05-18T11:24:39.962Z,21.80
2018-05-18T11:27:13.855Z,21.80
2018-05-18T11:29:49.428Z,23.20
2018-05-18T11:32:23.301Z,23.20
2018-05-18T11:34:57.890Z,24.10
2018-05-18T11:37:33.392Z,23.40
2018-05-18T11:40:07.903Z,23.30
2018-05-18T11:42:42.003Z,22.30
2018-05-18T11:45:16.849Z,21.70
2018-05-18T11:47:51.649Z,22.50
2018-05-18T11:50:26.071Z,23.40
2018-05-18T11:53:01.638Z,23.40
2018-05-18T11:55:36.276Z,23.40
2018-05-18T11:58:10.887Z,24.50
2018-05-18T12:00:44.668Z,24.30
2018-05-18T12:03:19.188Z,23.40
2018-05-18T12:05:52.902Z,23.40
2018-05-18T12:08:27.598Z,23.70
2018-05-18T12:11:02.039Z,24.80
2018-05-18T12:13:36.358Z,24.80
2018-05-18T12:16:11.485Z,25.10
2018-05-18T12:18:46.978Z,24.60
2018-05-18T12:21:22.163Z,25.50
2018-05-18T12:23:55.967Z,25.50
2018-05-18T12:26:31.120Z,26.10
2018-05-18T12:29:05.638Z,27.70
2018-05-18T12:31:40.408Z,27.70
2018-05-18T12:34:13.971Z,28.20
2018-05-18T12:36:50.311Z,26.90
2018-05-18T12:39:24.658Z,23.70
2018-05-18T12:42:00.586Z,24.40
2018-05-18T12:44:34.359Z,24.40
2018-05-18T12:47:08.423Z,26.50
2018-05-18T12:49:42.100Z,26.80
2018-05-18T12:52:17.872Z,28.90
2018-05-18T12:54:52.858Z,28.80
2018-05-18T12:57:26.896Z,28.00
2018-05-18T13:00:02.435Z,30.90
2018-05-18T13:02:36.167Z,30.80
2018-05-18T13:05:10.778Z,31.60
2018-05-18T13:07:44.387Z,32.70
2018-05-18T13:10:18.476Z,32.30
2018-05-18T13:12:53.015Z,30.50
2018-05-18T13:15:27.817Z,30.40
2018-05-18T13:18:02.260Z,28.60
2018-05-18T13:20:36.167Z,28.50
2018-05-18T13:23:10.587Z,28.00
2018-05-18T13:25:44.983Z,28.30
2018-05-18T13:28:19.398Z,28.30
2018-05-18T13:30:53.939Z,31.00
2018-05-18T13:33:28.255Z,30.90
2018-05-18T13:36:02.046Z,30.70
2018-05-18T13:38:36.354Z,28.80
2018-05-18T13:41:11.794Z,26.40
2018-05-18T13:43:46.982Z,27.10
2018-05-18T13:46:21.367Z,27.30
2018-05-18T13:48:55.277Z,27.30
2018-05-18T13:51:29.882Z,28.80
2018-05-18T13:54:04.740Z,30.10
2018-05-18T13:56:40.559Z,29.70
2018-05-18T13:59:14.353Z,29.60
2018-05-18T14:01:51.137Z,30.70
2018-05-18T14:04:25.068Z,30.60
2018-05-18T14:07:03.260Z,29.40
2018-05-18T14:09:37.467Z,29.30
2018-05-18T14:12:12.107Z,28.00
2018-05-18T14:14:45.888Z,28.10
2018-05-18T14:17:20.041Z,29.50
2018-05-18T14:19:54.419Z,31.60
2018-05-18T14:22:30.487Z,30.80
2018-05-18T14:25:05.423Z,31.00
2018-05-18T14:27:39.727Z,31.00
2018-05-18T14:30:14.375Z,32.90
2018-05-18T14:32:48.334Z,32.90
2018-05-18T14:35:22.885Z,29.20
2018-05-18T14:37:58.113Z,29.10
2018-05-18T14:40:32.541Z,26.90
2018-05-18T14:43:06.468Z,26.80
2018-05-18T14:45:42.195Z,27.60
2018-05-18T14:48:16.619Z,28.50
2018-05-18T14:50:51.726Z,28.50
2018-05-18T14:53:25.349Z,28.80
2018-05-18T14:55:59.891Z,30.20
2018-05-18T14:58:33.587Z,30.20
2018-05-18T15:01:08.454Z,30.90
2018-05-18T15:03:42.212Z,30.80
2018-05-18T15:06:16.525Z,28.90
2018-05-18T15:08:50.559Z,27.80
2018-05-18T15:11:25.059Z,27.60
2018-05-18T15:13:58.881Z,27.60
2018-05-18T15:16:33.395Z,26.40
2018-05-18T15:19:07.947Z,29.00
2018-05-18T15:21:41.619Z,29.00
2018-05-18T15:24:16.323Z,30.80
2018-05-18T15:26:50.534Z,30.80
2018-05-18T15:29:24.955Z,31.20
2018-05-18T15:31:59.286Z,31.20
2018-05-18T15:34:33.384Z,31.20
2018-05-18T15:37:08.096Z,32.30
2018-05-18T15:39:42.005Z,32.30
2018-05-18T15:42:16.248Z,31.50
2018-05-18T15:44:50.651Z,31.50
2018-05-18T15:47:24.266Z,31.90
2018-05-18T15:49:58.038Z,31.80
2018-05-18T15:52:33.492Z,32.50
2018-05-18T15:55:08.124Z,30.90
2018-05-18T15:57:42.142Z,31.90
2018-05-18T16:00:17.835Z,28.10
2018-05-18T16:02:53.098Z,28.00
2018-05-18T16:05:28.034Z,30.60
2018-05-18T16:08:02.574Z,31.00
2018-05-18T16:10:37.900Z,31.00
2018-05-18T16:13:12.340Z,28.80
2018-05-18T16:15:47.890Z,29.00
2018-05-18T16:18:22.282Z,29.10
2018-05-18T16:20:58.234Z,28.50
2018-05-18T16:23:32.554Z,28.50
2018-05-18T16:26:06.269Z,29.40
2018-05-18T16:28:40.798Z,31.00
2018-05-18T16:31:15.333Z,27.40
2018-05-18T16:33:50.225Z,27.10
2018-05-18T16:36:24.258Z,27.10
2018-05-18T16:38:59.207Z,28.20
2018-05-18T16:41:32.910Z,29.00
2018-05-18T16:44:07.586Z,27.50
2018-05-18T16:46:42.125Z,28.50
2018-05-18T16:49:16.109Z,28.50
2018-05-18T16:51:51.259Z,30.50
2018-05-18T16:54:24.939Z,30.50
2018-05-18T16:56:59.472Z,28.00
2018-05-18T16:59:33.899Z,29.00
2018-05-18T17:02:07.898Z,29.00
2018-05-18T17:04:41.842Z,29.10
2018-05-18T17:07:17.167Z,27.90
2018-05-18T17:09:50.892Z,27.80
2018-05-18T17:12:25.031Z,27.40
2018-05-18T17:15:00.606Z,26.40
2018-05-18T17:17:34.424Z,26.40
2018-05-18T17:20:08.244Z,26.00
2018-05-18T17:22:42.761Z,25.50
2018-05-18T17:25:16.565Z,25.50
2018-05-18T17:27:50.922Z,25.20
2018-05-18T17:30:25.384Z,26.10
2018-05-18T17:32:59.911Z,26.10
2018-05-18T17:35:34.243Z,26.00
2018-05-18T17:38:09.535Z,25.40
2018-05-18T17:40:44.087Z,25.30
2018-05-18T17:43:19.040Z,24.60
2018-05-18T17:45:53.226Z,24.60
2018-05-18T17:48:26.861Z,24.30
2018-05-18T17:51:01.458Z,24.70
2018-05-18T17:53:36.109Z,24.10
2018-05-18T17:56:11.124Z,24.10
2018-05-18T17:58:45.182Z,24.10
2018-05-18T18:01:19.168Z,23.80
2018-05-18T18:03:53.235Z,23.20
2018-05-18T18:06:27.770Z,21.50
2018-05-18T18:09:03.127Z,21.40
2018-05-18T18:11:37.997Z,20.20
2018-05-18T18:14:13.187Z,19.80
2018-05-18T18:16:46.872Z,19.80
2018-05-18T18:19:22.041Z,19.20
2018-05-18T18:21:56.249Z,19.20
2018-05-18T18:24:31.488Z,18.80
2018-05-18T18:27:05.591Z,18.80
2018-05-18T18:29:39.593Z,18.70
2018-05-18T18:32:14.522Z,18.50
2018-05-18T18:34:48.520Z,18.50
2018-05-18T18:37:23.047Z,18.30
2018-05-18T18:39:57.791Z,18.30
2018-05-18T18:42:31.502Z,18.20
2018-05-18T18:45:05.380Z,18.10
2018-05-18T18:47:40.110Z,17.70
2018-05-18T18:50:14.639Z,17.50
2018-05-18T18:52:48.537Z,17.50
2018-05-18T18:55:23.255Z,17.30
2018-05-18T18:57:58.081Z,17.00
2018-05-18T19:00:31.786Z,17.00
2018-05-18T19:03:06.227Z,16.90
2018-05-18T19:05:41.878Z,16.70
2018-05-18T19:08:16.767Z,16.40
2018-05-18T19:10:51.605Z,16.20
2018-05-18T19:13:25.318Z,16.20
2018-05-18T19:16:00.456Z,16.00
2018-05-18T19:18:34.999Z,15.90
2018-05-18T19:21:09.497Z,15.60
2018-05-18T19:23:43.224Z,15.70
2018-05-18T19:26:17.233Z,15.50
2018-05-18T19:28:51.751Z,15.20
2018-05-18T19:31:25.644Z,15.10
2018-05-18T19:34:00.893Z,15.00
2018-05-18T19:36:35.769Z,14.90
2018-05-18T19:39:09.467Z,14.90
2018-05-18T19:41:43.123Z,14.80
2018-05-18T19:44:18.063Z,14.70
2018-05-18T19:46:52.759Z,14.60
2018-05-18T19:49:28.521Z,14.50
2018-05-18T19:52:03.275Z,14.40
2018-05-18T19:54:38.313Z,14.00
2018-05-18T19:57:12.212Z,14.00
2018-05-18T19:59:46.812Z,13.80
2018-05-18T20:02:22.251Z,13.90
2018-05-18T20:04:56.602Z,13.70
2018-05-18T20:07:31.717Z,13.60
2018-05-18T20:10:07.029Z,13.70
2018-05-18T20:12:42.357Z,13.50
2018-05-18T20:15:17.013Z,13.30
2018-05-18T20:17:51.859Z,13.30
2018-05-18T20:20:27.275Z,13.40
2018-05-18T20:23:04.570Z,13.40
2018-05-18T20:25:39.800Z,13.20
2018-05-18T20:28:14.356Z,13.20
2018-05-18T20:30:48.624Z,13.10
2018-05-18T20:33:22.454Z,13.00
2018-05-18T20:35:56.544Z,13.00
2018-05-18T20:38:31.194Z,12.90
2018-05-18T20:41:05.911Z,13.00
2018-05-18T20:43:39.943Z,12.90
2018-05-18T20:46:13.961Z,12.80
2018-05-18T20:48:49.066Z,12.40
2018-05-18T20:51:24.186Z,12.40
2018-05-18T20:53:59.046Z,12.30
2018-05-18T20:56:32.934Z,12.30
2018-05-18T20:59:06.868Z,12.20
2018-05-18T21:01:42.058Z,12.30
2018-05-18T21:04:17.122Z,12.20
2018-05-18T21:06:52.756Z,12.00
2018-05-18T21:09:27.494Z,12.00
2018-05-18T21:12:02.299Z,12.00
2018-05-18T21:14:36.756Z,11.90
2018-05-18T21:17:11.149Z,12.00
2018-05-18T21:19:44.971Z,12.00
2018-05-18T21:22:19.683Z,12.10
2018-05-18T21:24:54.288Z,12.10
2018-05-18T21:27:29.132Z,12.00
2018-05-18T21:30:02.796Z,12.00
2018-05-18T21:32:38.056Z,11.70
2018-05-18T21:35:12.072Z,11.60
2018-05-18T21:37:46.975Z,11.60
2018-05-18T21:40:21.746Z,11.50
2018-05-18T21:42:56.072Z,11.40
2018-05-18T21:45:30.775Z,11.30
2018-05-18T21:48:05.133Z,11.30
2018-05-18T21:50:39.720Z,11.10
2018-05-18T21:53:14.566Z,11.10
2018-05-18T21:55:48.564Z,11.10
2018-05-18T21:58:24.332Z,11.20
2018-05-18T22:00:58.067Z,11.20
2018-05-18T22:03:32.535Z,10.90
2018-05-18T22:06:07.667Z,10.80
2018-05-18T22:08:41.803Z,10.70
2018-05-18T22:11:16.868Z,10.70
2018-05-18T22:13:50.686Z,10.70
2018-05-18T22:16:25.539Z,10.70
2018-05-18T22:19:00.582Z,10.80
2018-05-18T22:21:34.998Z,10.80
2018-05-18T22:24:09.617Z,10.80
2018-05-18T22:26:43.428Z,10.80
2018-05-18T22:29:18.161Z,10.60
2018-05-18T22:31:52.482Z,10.60
2018-05-18T22:34:27.502Z,10.60
2018-05-18T22:37:01.202Z,10.60
2018-05-18T22:39:35.945Z,10.50
2018-05-18T22:42:10.562Z,10.50
2018-05-18T22:44:44.282Z,10.50
2018-05-18T22:47:19.495Z,10.30
2018-05-18T22:49:54.423Z,10.30
2018-05-18T22:52:29.559Z,10.30
2018-05-18T22:55:03.366Z,10.20
2018-05-18T22:57:38.601Z,10.20
2018-05-18T23:00:30.629Z,10.20
2018-05-18T23:03:05.433Z,10.20
2018-05-18T23:05:39.495Z,10.10
2018-05-18T23:08:14.015Z,10.30
2018-05-18T23:10:50.782Z,10.30
2018-05-18T23:13:26.234Z,10.00
2018-05-18T23:16:01.036Z,9.90
2018-05-18T23:18:34.664Z,9.90
2018-05-18T23:21:08.355Z,9.90
2018-05-18T23:23:42.982Z,10.00
2018-05-18T23:26:18.508Z,10.10
2018-05-18T23:28:52.327Z,10.10
2018-05-18T23:31:27.058Z,9.90
2018-05-18T23:34:01.171Z,9.90
2018-05-18T23:36:35.400Z,10.00
2018-05-18T23:39:09.783Z,10.00
2018-05-18T23:41:43.592Z,10.00
2018-05-18T23:44:17.627Z,9.80
2018-05-18T23:46:51.744Z,9.80
2018-05-18T23:49:26.250Z,9.90
2018-05-18T23:52:01.677Z,10.10
2018-05-18T23:54:36.627Z,10.30
2018-05-18T23:57:12.068Z,10.20
2018-05-18T23:59:46.678Z,10.10
